TimePDT,TemperatureF,Dew PointF,Humidity,Sea Level PressureIn,VisibilityMPH,Wind Direction,Wind SpeedMPH,Gust SpeedMPH,PrecipitationIn,Events,Conditions,WindDirDegrees,DateUTC
12:53 AM,81.0,54.0,39,29.95,10.0,South,9.2,-,N/A,,Clear,180,2013-07-03 07:53:00
1:53 AM,79.0,54.0,42,29.96,10.0,South,11.5,-,N/A,,Clear,170,2013-07-03 08:53:00
2:53 AM,75.9,53.1,45,29.96,10.0,South,10.4,-,N/A,,Clear,180,2013-07-03 09:53:00
3:53 AM,75.0,52.0,44,29.96,10.0,South,8.1,-,N/A,,Clear,180,2013-07-03 10:53:00
4:53 AM,75.0,52.0,44,29.98,10.0,SSW,9.2,-,N/A,,Clear,200,2013-07-03 11:53:00
5:53 AM,73.9,53.1,48,29.99,10.0,South,5.8,-,N/A,,Clear,190,2013-07-03 12:53:00
6:53 AM,78.1,51.1,39,30.00,10.0,SSW,8.1,-,N/A,,Clear,200,2013-07-03 13:53:00
7:53 AM,80.1,46.9,31,30.01,10.0,SW,17.3,23.0,N/A,,Clear,220,2013-07-03 14:53:00
8:53 AM,80.1,48.9,34,30.01,10.0,WSW,11.5,-,N/A,,Clear,250,2013-07-03 15:53:00
9:53 AM,82.9,48.9,31,29.99,10.0,SW,10.4,-,N/A,,Clear,230,2013-07-03 16:53:00
10:53 AM,86.0,51.1,30,29.99,10.0,WSW,9.2,-,N/A,,Clear,250,2013-07-03 17:53:00
11:53 AM,87.1,48.9,27,29.98,10.0,Variable,6.9,-,N/A,,Clear,0,2013-07-03 18:53:00
12:53 PM,91.0,46.9,22,29.96,10.0,SSW,10.4,17.3,N/A,,Clear,200,2013-07-03 19:53:00
1:53 PM,91.9,48.0,22,29.94,10.0,South,11.5,-,N/A,,Clear,190,2013-07-03 20:53:00
2:53 PM,93.9,44.1,18,29.93,10.0,WSW,13.8,18.4,N/A,,Clear,240,2013-07-03 21:53:00
3:53 PM,95.0,44.1,17,29.91,10.0,SW,12.7,18.4,N/A,,Clear,230,2013-07-03 22:53:00
4:53 PM,95.0,39.9,15,29.89,10.0,WSW,8.1,17.3,N/A,,Clear,250,2013-07-03 23:53:00
5:53 PM,95.0,35.1,12,29.86,10.0,WSW,11.5,-,N/A,,Clear,240,2013-07-04 00:53:00
6:53 PM,93.9,33.1,12,29.85,10.0,WSW,9.2,-,N/A,,Clear,250,2013-07-04 01:53:00
7:53 PM,91.9,33.1,12,29.84,10.0,SW,4.6,-,N/A,,Clear,230,2013-07-04 02:53:00
8:53 PM,81.0,51.1,35,29.85,10.0,ESE,5.8,-,N/A,,Clear,110,2013-07-04 03:53:00
9:53 PM,73.9,52.0,46,29.88,10.0,SSE,3.5,-,N/A,,Clear,160,2013-07-04 04:53:00
10:53 PM,79.0,46.9,32,29.90,10.0,South,11.5,-,N/A,,Clear,170,2013-07-04 05:53:00
11:53 PM,75.9,44.1,32,29.92,10.0,South,11.5,-,N/A,,Clear,180,2013-07-04 06:53:00